sensor_id;sensor_type;location;lat;lon;timestamp;pressure;altitude;pressure_sealevel;temperature;humidity
62928;BME280;51070;52.236;-0.892;2022-09-09T00:00:48;99402.48;;;15.72;82.73
62928;BME280;51070;52.236;-0.892;2022-09-09T00:03:18;99397.02;;;15.77;82.65
62928;BME280;51070;52.236;-0.892;2022-09-09T00:12:10;99398.94;;;15.79;82.47
62928;BME280;51070;52.236;-0.892;2022-09-09T00:14:35;99399.98;;;15.79;82.68
62928;BME280;51070;52.236;-0.892;2022-09-09T00:17:09;99405.55;;;15.80;82.61
62928;BME280;51070;52.236;-0.892;2022-09-09T00:19:53;99406.08;;;15.81;82.74
62928;BME280;51070;52.236;-0.892;2022-09-09T00:22:25;99411.61;;;15.83;82.68
62928;BME280;51070;52.236;-0.892;2022-09-09T00:24:54;99407.59;;;15.84;82.53
62928;BME280;51070;52.236;-0.892;2022-09-09T00:27:53;99405.34;;;15.82;82.50
62928;BME280;51070;52.236;-0.892;2022-09-09T00:30:25;99404.14;;;15.81;82.36
62928;BME280;51070;52.236;-0.892;2022-09-09T00:33:14;99405.91;;;15.79;82.35
62928;BME280;51070;52.236;-0.892;2022-09-09T00:35:48;99408.69;;;15.78;82.58
62928;BME280;51070;52.236;-0.892;2022-09-09T00:38:19;99409.56;;;15.79;82.51
62928;BME280;51070;52.236;-0.892;2022-09-09T00:43:57;99401.73;;;15.78;82.29
62928;BME280;51070;52.236;-0.892;2022-09-09T01:00:22;99400.66;;;15.62;82.15
62928;BME280;51070;52.236;-0.892;2022-09-09T01:05:27;99403.89;;;15.49;81.91
62928;BME280;51070;52.236;-0.892;2022-09-09T01:07:57;99409.58;;;15.35;82.05
62928;BME280;51070;52.236;-0.892;2022-09-09T01:10:50;99412.78;;;15.25;82.84
62928;BME280;51070;52.236;-0.892;2022-09-09T01:13:30;99412.49;;;15.18;83.11
62928;BME280;51070;52.236;-0.892;2022-09-09T01:15:58;99415.48;;;15.14;83.55
62928;BME280;51070;52.236;-0.892;2022-09-09T01:18:44;99416.15;;;15.16;83.94
62928;BME280;51070;52.236;-0.892;2022-09-09T01:28:55;99410.38;;;15.41;83.87
62928;BME280;51070;52.236;-0.892;2022-09-09T01:31:31;99412.26;;;15.47;83.65
62928;BME280;51070;52.236;-0.892;2022-09-09T01:33:58;99412.75;;;15.51;83.26
62928;BME280;51070;52.236;-0.892;2022-09-09T01:36:31;99413.27;;;15.55;83.17
62928;BME280;51070;52.236;-0.892;2022-09-09T01:38:59;99414.83;;;15.56;82.79
62928;BME280;51070;52.236;-0.892;2022-09-09T01:41:25;99418.16;;;15.52;82.66
62928;BME280;51070;52.236;-0.892;2022-09-09T01:43:50;99415.39;;;15.47;82.61
62928;BME280;51070;52.236;-0.892;2022-09-09T01:46:18;99414.70;;;15.44;82.51
62928;BME280;51070;52.236;-0.892;2022-09-09T01:48:47;99411.96;;;15.41;82.55
62928;BME280;51070;52.236;-0.892;2022-09-09T01:51:13;99411.63;;;15.40;82.50
62928;BME280;51070;52.236;-0.892;2022-09-09T01:53:41;99411.83;;;15.37;82.47
62928;BME280;51070;52.236;-0.892;2022-09-09T01:56:12;99412.19;;;15.34;82.69
62928;BME280;51070;52.236;-0.892;2022-09-09T02:06:53;99409.11;;;15.26;82.84
62928;BME280;51070;52.236;-0.892;2022-09-09T02:09:23;99406.36;;;15.23;82.74
62928;BME280;51070;52.236;-0.892;2022-09-09T02:11:55;99405.71;;;15.16;82.71
62928;BME280;51070;52.236;-0.892;2022-09-09T02:14:28;99408.37;;;15.10;82.90
62928;BME280;51070;52.236;-0.892;2022-09-09T02:17:01;99403.87;;;15.05;83.18
62928;BME280;51070;52.236;-0.892;2022-09-09T02:19:36;99404.58;;;15.04;83.50
62928;BME280;51070;52.236;-0.892;2022-09-09T02:22:03;99403.89;;;15.04;83.39
62928;BME280;51070;52.236;-0.892;2022-09-09T02:24:32;99402.33;;;15.03;83.32
62928;BME280;51070;52.236;-0.892;2022-09-09T02:27:02;99406.70;;;15.00;83.49
62928;BME280;51070;52.236;-0.892;2022-09-09T02:29:33;99407.76;;;14.96;83.65
62928;BME280;51070;52.236;-0.892;2022-09-09T02:32:02;99408.82;;;14.94;83.80
62928;BME280;51070;52.236;-0.892;2022-09-09T02:34:31;99410.41;;;14.89;83.70
62928;BME280;51070;52.236;-0.892;2022-09-09T02:37:03;99412.02;;;14.83;83.57
62928;BME280;51070;52.236;-0.892;2022-09-09T02:39:29;99414.84;;;14.77;83.97
62928;BME280;51070;52.236;-0.892;2022-09-09T02:41:54;99418.86;;;14.74;84.15
62928;BME280;51070;52.236;-0.892;2022-09-09T02:44:20;99422.34;;;14.71;84.21
62928;BME280;51070;52.236;-0.892;2022-09-09T02:49:35;99420.81;;;14.67;84.28
62928;BME280;51070;52.236;-0.892;2022-09-09T02:52:05;99420.80;;;14.64;84.04
62928;BME280;51070;52.236;-0.892;2022-09-09T02:54:33;99421.02;;;14.59;83.97
62928;BME280;51070;52.236;-0.892;2022-09-09T02:57:14;99419.12;;;14.56;84.35
62928;BME280;51070;52.236;-0.892;2022-09-09T02:59:43;99416.17;;;14.54;84.19
62928;BME280;51070;52.236;-0.892;2022-09-09T03:02:09;99417.91;;;14.52;84.13
62928;BME280;51070;52.236;-0.892;2022-09-09T03:04:39;99420.19;;;14.48;84.18
62928;BME280;51070;52.236;-0.892;2022-09-09T03:07:05;99424.36;;;14.46;84.45
62928;BME280;51070;52.236;-0.892;2022-09-09T03:09:31;99424.38;;;14.45;84.42
62928;BME280;51070;52.236;-0.892;2022-09-09T03:12:00;99422.99;;;14.44;84.48
62928;BME280;51070;52.236;-0.892;2022-09-09T03:14:25;99422.14;;;14.41;84.31
62928;BME280;51070;52.236;-0.892;2022-09-09T03:16:52;99425.45;;;14.38;84.44
62928;BME280;51070;52.236;-0.892;2022-09-09T03:19:18;99428.91;;;14.37;84.63
62928;BME280;51070;52.236;-0.892;2022-09-09T03:21:45;99424.39;;;14.34;84.44
62928;BME280;51070;52.236;-0.892;2022-09-09T03:24:11;99424.55;;;14.31;84.46
62928;BME280;51070;52.236;-0.892;2022-09-09T03:26:37;99421.11;;;14.30;84.68
62928;BME280;51070;52.236;-0.892;2022-09-09T03:29:03;99426.30;;;14.31;84.95
62928;BME280;51070;52.236;-0.892;2022-09-09T03:31:33;99427.34;;;14.32;84.88
62928;BME280;51070;52.236;-0.892;2022-09-09T03:33:58;99428.21;;;14.33;85.03
62928;BME280;51070;52.236;-0.892;2022-09-09T03:36:26;99429.08;;;14.34;85.38
62928;BME280;51070;52.236;-0.892;2022-09-09T03:38:52;99425.44;;;14.34;85.03
62928;BME280;51070;52.236;-0.892;2022-09-09T03:41:20;99425.95;;;14.33;85.17
62928;BME280;51070;52.236;-0.892;2022-09-09T03:43:49;99428.74;;;14.30;85.14
62928;BME280;51070;52.236;-0.892;2022-09-09T03:46:15;99433.09;;;14.28;85.36
62928;BME280;51070;52.236;-0.892;2022-09-09T03:48:40;99437.95;;;14.27;85.39
62928;BME280;51070;52.236;-0.892;2022-09-09T03:51:06;99437.61;;;14.27;85.50
62928;BME280;51070;52.236;-0.892;2022-09-09T03:53:31;99438.31;;;14.26;85.51
62928;BME280;51070;52.236;-0.892;2022-09-09T03:55:57;99438.65;;;14.26;85.55
62928;BME280;51070;52.236;-0.892;2022-09-09T03:58:25;99445.27;;;14.27;85.60
62928;BME280;51070;52.236;-0.892;2022-09-09T04:00:59;99447.69;;;14.27;85.65
62928;BME280;51070;52.236;-0.892;2022-09-09T04:03:26;99452.38;;;14.27;85.84
62928;BME280;51070;52.236;-0.892;2022-09-09T04:05:52;99457.07;;;14.28;85.88
62928;BME280;51070;52.236;-0.892;2022-09-09T04:08:19;99462.29;;;14.29;85.83
62928;BME280;51070;52.236;-0.892;2022-09-09T04:10:46;99465.59;;;14.29;85.93
62928;BME280;51070;52.236;-0.892;2022-09-09T04:13:13;99470.29;;;14.30;85.87
62928;BME280;51070;52.236;-0.892;2022-09-09T04:15:40;99472.00;;;14.32;85.86
62928;BME280;51070;52.236;-0.892;2022-09-09T04:18:05;99468.89;;;14.34;85.74
62928;BME280;51070;52.236;-0.892;2022-09-09T04:20:31;99468.89;;;14.37;85.85
62928;BME280;51070;52.236;-0.892;2022-09-09T04:22:58;99471.15;;;14.39;85.82
62928;BME280;51070;52.236;-0.892;2022-09-09T04:25:23;99475.13;;;14.42;85.68
62928;BME280;51070;52.236;-0.892;2022-09-09T04:27:56;99477.22;;;14.45;85.69
62928;BME280;51070;52.236;-0.892;2022-09-09T04:30:22;99479.13;;;14.48;85.65
62928;BME280;51070;52.236;-0.892;2022-09-09T04:32:48;99477.71;;;14.54;85.59
62928;BME280;51070;52.236;-0.892;2022-09-09T04:35:14;99479.25;;;14.60;85.12
62928;BME280;51070;52.236;-0.892;2022-09-09T04:37:40;99476.98;;;14.60;84.95
62928;BME280;51070;52.236;-0.892;2022-09-09T04:40:06;99480.46;;;14.60;84.94
62928;BME280;51070;52.236;-0.892;2022-09-09T04:42:35;99482.55;;;14.59;84.85
62928;BME280;51070;52.236;-0.892;2022-09-09T04:45:02;99486.38;;;14.59;84.99
62928;BME280;51070;52.236;-0.892;2022-09-09T04:47:28;99488.29;;;14.61;85.02
62928;BME280;51070;52.236;-0.892;2022-09-09T04:49:53;99486.70;;;14.64;85.02
62928;BME280;51070;52.236;-0.892;2022-09-09T04:52:20;99486.35;;;14.67;85.14
62928;BME280;51070;52.236;-0.892;2022-09-09T04:54:46;99483.02;;;14.73;85.18
62928;BME280;51070;52.236;-0.892;2022-09-09T04:57:12;99483.01;;;14.77;84.96
62928;BME280;51070;52.236;-0.892;2022-09-09T04:59:38;99485.59;;;14.82;85.02
62928;BME280;51070;52.236;-0.892;2022-09-09T05:02:05;99485.41;;;14.85;85.05
62928;BME280;51070;52.236;-0.892;2022-09-09T05:04:31;99488.00;;;14.88;84.87
62928;BME280;51070;52.236;-0.892;2022-09-09T05:06:58;99494.27;;;14.89;84.97
62928;BME280;51070;52.236;-0.892;2022-09-09T05:09:24;99498.59;;;14.91;85.03
62928;BME280;51070;52.236;-0.892;2022-09-09T05:11:50;99499.80;;;14.93;85.04
62928;BME280;51070;52.236;-0.892;2022-09-09T05:14:16;99499.61;;;14.95;85.24
62928;BME280;51070;52.236;-0.892;2022-09-09T05:16:44;99502.21;;;14.97;85.12
62928;BME280;51070;52.236;-0.892;2022-09-09T05:19:12;99503.08;;;14.98;85.23
62928;BME280;51070;52.236;-0.892;2022-09-09T05:21:38;99501.50;;;15.02;85.41
62928;BME280;51070;52.236;-0.892;2022-09-09T05:24:04;99500.44;;;15.06;85.46
62928;BME280;51070;52.236;-0.892;2022-09-09T05:26:29;99503.88;;;15.11;85.37
62928;BME280;51070;52.236;-0.892;2022-09-09T05:28:55;99506.65;;;15.14;85.39
62928;BME280;51070;52.236;-0.892;2022-09-09T05:31:21;99510.83;;;15.16;85.40
62928;BME280;51070;52.236;-0.892;2022-09-09T05:33:47;99513.60;;;15.17;85.26
62928;BME280;51070;52.236;-0.892;2022-09-09T05:36:19;99513.23;;;15.18;85.29
62928;BME280;51070;52.236;-0.892;2022-09-09T05:38:46;99515.31;;;15.20;85.35
62928;BME280;51070;52.236;-0.892;2022-09-09T05:41:13;99518.42;;;15.23;85.23
62928;BME280;51070;52.236;-0.892;2022-09-09T05:43:41;99521.38;;;15.24;85.14
62928;BME280;51070;52.236;-0.892;2022-09-09T05:46:14;99519.29;;;15.26;85.34
62928;BME280;51070;52.236;-0.892;2022-09-09T05:48:44;99514.25;;;15.27;85.26
62928;BME280;51070;52.236;-0.892;2022-09-09T05:51:13;99519.79;;;15.29;85.28
62928;BME280;51070;52.236;-0.892;2022-09-09T05:53:41;99519.09;;;15.31;85.20
62928;BME280;51070;52.236;-0.892;2022-09-09T05:56:14;99524.98;;;15.35;85.12
62928;BME280;51070;52.236;-0.892;2022-09-09T05:58:40;99528.63;;;15.37;84.99
62928;BME280;51070;52.236;-0.892;2022-09-09T06:01:11;99529.48;;;15.38;85.00
62928;BME280;51070;52.236;-0.892;2022-09-09T06:03:40;99532.45;;;15.38;84.89
62928;BME280;51070;52.236;-0.892;2022-09-09T06:06:08;99538.02;;;15.38;84.87
62928;BME280;51070;52.236;-0.892;2022-09-09T06:08:35;99539.59;;;15.38;84.71
62928;BME280;51070;52.236;-0.892;2022-09-09T06:11:04;99546.90;;;15.37;84.51
62928;BME280;51070;52.236;-0.892;2022-09-09T06:13:31;99546.55;;;15.34;84.62
62928;BME280;51070;52.236;-0.892;2022-09-09T06:15:59;99550.38;;;15.34;84.78
62928;BME280;51070;52.236;-0.892;2022-09-09T06:18:25;99548.48;;;15.37;84.90
62928;BME280;51070;52.236;-0.892;2022-09-09T06:20:56;99550.88;;;15.40;84.88
62928;BME280;51070;52.236;-0.892;2022-09-09T06:23:22;99550.35;;;15.40;84.84
62928;BME280;51070;52.236;-0.892;2022-09-09T06:25:48;99552.80;;;15.42;84.81
62928;BME280;51070;52.236;-0.892;2022-09-09T06:28:15;99555.05;;;15.41;84.71
62928;BME280;51070;52.236;-0.892;2022-09-09T06:30:41;99555.92;;;15.38;84.74
62928;BME280;51070;52.236;-0.892;2022-09-09T06:33:07;99556.98;;;15.38;84.74
62928;BME280;51070;52.236;-0.892;2022-09-09T06:35:32;99559.40;;;15.40;84.60
62928;BME280;51070;52.236;-0.892;2022-09-09T06:37:57;99560.95;;;15.43;84.58
62928;BME280;51070;52.236;-0.892;2022-09-09T06:40:24;99563.55;;;15.47;84.45
62928;BME280;51070;52.236;-0.892;2022-09-09T06:42:50;99565.63;;;15.55;84.53
62928;BME280;51070;52.236;-0.892;2022-09-09T06:45:16;99565.40;;;15.62;84.36
62928;BME280;51070;52.236;-0.892;2022-09-09T06:47:42;99565.02;;;15.69;84.18
62928;BME280;51070;52.236;-0.892;2022-09-09T06:50:08;99567.95;;;15.71;83.83
62928;BME280;51070;52.236;-0.892;2022-09-09T06:52:36;99566.89;;;15.72;83.67
62928;BME280;51070;52.236;-0.892;2022-09-09T06:55:03;99568.11;;;15.73;83.65
62928;BME280;51070;52.236;-0.892;2022-09-09T06:57:29;99573.34;;;15.74;83.43
62928;BME280;51070;52.236;-0.892;2022-09-09T06:59:54;99574.21;;;15.74;83.39
62928;BME280;51070;52.236;-0.892;2022-09-09T07:02:20;99574.38;;;15.74;83.53
62928;BME280;51070;52.236;-0.892;2022-09-09T07:04:46;99578.21;;;15.74;83.56
62928;BME280;51070;52.236;-0.892;2022-09-09T07:07:12;99581.48;;;15.78;83.61
62928;BME280;51070;52.236;-0.892;2022-09-09T07:09:40;99587.05;;;15.80;83.35
62928;BME280;51070;52.236;-0.892;2022-09-09T07:12:05;99586.55;;;15.76;83.11
62928;BME280;51070;52.236;-0.892;2022-09-09T07:14:32;99592.85;;;15.72;83.21
62928;BME280;51070;52.236;-0.892;2022-09-09T07:16:59;99597.23;;;15.69;82.96
62928;BME280;51070;52.236;-0.892;2022-09-09T07:19:25;99596.19;;;15.67;83.36
62928;BME280;51070;52.236;-0.892;2022-09-09T07:21:51;99598.60;;;15.71;83.30
62928;BME280;51070;52.236;-0.892;2022-09-09T07:24:17;99599.80;;;15.74;83.48
62928;BME280;51070;52.236;-0.892;2022-09-09T07:26:42;99597.51;;;15.78;83.37
62928;BME280;51070;52.236;-0.892;2022-09-09T07:29:09;99598.73;;;15.79;83.07
62928;BME280;51070;52.236;-0.892;2022-09-09T07:31:37;99601.84;;;15.83;82.86
62928;BME280;51070;52.236;-0.892;2022-09-09T07:34:04;99608.63;;;15.85;82.69
62928;BME280;51070;52.236;-0.892;2022-09-09T07:36:32;99606.35;;;15.85;82.43
62928;BME280;51070;52.236;-0.892;2022-09-09T07:39:00;99606.69;;;15.87;82.32
62928;BME280;51070;52.236;-0.892;2022-09-09T07:41:30;99604.73;;;15.92;82.18
62928;BME280;51070;52.236;-0.892;2022-09-09T07:43:57;99610.10;;;15.98;81.89
62928;BME280;51070;52.236;-0.892;2022-09-09T07:46:25;99612.86;;;15.99;81.79
62928;BME280;51070;52.236;-0.892;2022-09-09T07:48:53;99614.77;;;16.02;81.84
62928;BME280;51070;52.236;-0.892;2022-09-09T07:51:25;99615.79;;;16.05;81.91
62928;BME280;51070;52.236;-0.892;2022-09-09T07:53:54;99616.45;;;16.09;81.62
62928;BME280;51070;52.236;-0.892;2022-09-09T07:56:20;99615.89;;;16.15;81.47
62928;BME280;51070;52.236;-0.892;2022-09-09T07:58:48;99618.64;;;16.19;81.18
62928;BME280;51070;52.236;-0.892;2022-09-09T08:01:21;99623.67;;;16.21;80.88
62928;BME280;51070;52.236;-0.892;2022-09-09T08:03:53;99630.98;;;16.25;80.78
62928;BME280;51070;52.236;-0.892;2022-09-09T08:06:19;99628.46;;;16.33;80.64
62928;BME280;51070;52.236;-0.892;2022-09-09T08:08:49;99634.45;;;16.46;80.48
62928;BME280;51070;52.236;-0.892;2022-09-09T08:11:16;99635.59;;;16.56;80.02
62928;BME280;51070;52.236;-0.892;2022-09-09T08:13:43;99637.95;;;16.67;79.82
62928;BME280;51070;52.236;-0.892;2022-09-09T08:16:12;99643.24;;;16.78;79.49
62928;BME280;51070;52.236;-0.892;2022-09-09T08:18:38;99647.88;;;16.86;78.93
62928;BME280;51070;52.236;-0.892;2022-09-09T08:21:31;99651.14;;;16.91;78.54
62928;BME280;51070;52.236;-0.892;2022-09-09T08:24:00;99652.46;;;16.98;78.23
62928;BME280;51070;52.236;-0.892;2022-09-09T08:26:46;99652.56;;;17.05;78.26
62928;BME280;51070;52.236;-0.892;2022-09-09T08:29:14;99656.46;;;17.30;77.65
62928;BME280;51070;52.236;-0.892;2022-09-09T08:31:44;99659.05;;;17.60;77.00
62928;BME280;51070;52.236;-0.892;2022-09-09T08:34:10;99659.42;;;17.86;75.79
62928;BME280;51070;52.236;-0.892;2022-09-09T08:36:38;99660.98;;;18.11;75.08
62928;BME280;51070;52.236;-0.892;2022-09-09T08:39:06;99658.41;;;18.31;74.34
62928;BME280;51070;52.236;-0.892;2022-09-09T08:49:35;99662.78;;;18.52;71.63
62928;BME280;51070;52.236;-0.892;2022-09-09T08:52:12;99664.48;;;18.57;71.22
62928;BME280;51070;52.236;-0.892;2022-09-09T08:54:38;99661.21;;;18.82;70.84
62928;BME280;51070;52.236;-0.892;2022-09-09T08:57:14;99664.47;;;20.21;68.39
62928;BME280;51070;52.236;-0.892;2022-09-09T08:59:43;99669.32;;;21.97;64.83
62928;BME280;51070;52.236;-0.892;2022-09-09T09:02:18;99666.59;;;22.72;62.31
62928;BME280;51070;52.236;-0.892;2022-09-09T09:04:58;99671.64;;;22.79;61.41
62928;BME280;51070;52.236;-0.892;2022-09-09T09:07:54;99677.80;;;23.77;58.93
62928;BME280;51070;52.236;-0.892;2022-09-09T09:10:53;99675.77;;;24.76;55.65
62928;BME280;51070;52.236;-0.892;2022-09-09T09:13:39;99688.80;;;25.85;53.71
62928;BME280;51070;52.236;-0.892;2022-09-09T09:16:33;99689.45;;;25.90;52.18
62928;BME280;51070;52.236;-0.892;2022-09-09T09:19:03;99691.29;;;26.73;50.01
62928;BME280;51070;52.236;-0.892;2022-09-09T09:24:09;99697.02;;;26.82;49.43
62928;BME280;51070;52.236;-0.892;2022-09-09T09:26:42;99701.48;;;26.81;48.64
62928;BME280;51070;52.236;-0.892;2022-09-09T09:29:14;99711.64;;;26.00;48.80
62928;BME280;51070;52.236;-0.892;2022-09-09T09:31:48;99709.13;;;25.23;49.67
62928;BME280;51070;52.236;-0.892;2022-09-09T09:34:16;99714.05;;;24.56;51.06
62928;BME280;51070;52.236;-0.892;2022-09-09T09:36:58;99716.11;;;24.32;51.76
62928;BME280;51070;52.236;-0.892;2022-09-09T09:39:30;99718.13;;;24.82;51.08
62928;BME280;51070;52.236;-0.892;2022-09-09T09:41:56;99714.29;;;25.22;50.23
62928;BME280;51070;52.236;-0.892;2022-09-09T09:44:32;99715.82;;;24.86;49.58
62928;BME280;51070;52.236;-0.892;2022-09-09T09:47:14;99720.20;;;24.70;50.31
62928;BME280;51070;52.236;-0.892;2022-09-09T09:49:54;99721.70;;;25.06;50.11
62928;BME280;51070;52.236;-0.892;2022-09-09T09:52:26;99719.87;;;25.40;49.69
62928;BME280;51070;52.236;-0.892;2022-09-09T09:54:53;99719.80;;;26.26;47.96
62928;BME280;51070;52.236;-0.892;2022-09-09T09:57:25;99724.94;;;26.30;46.89
62928;BME280;51070;52.236;-0.892;2022-09-09T10:00:02;99726.55;;;25.60;47.96
62928;BME280;51070;52.236;-0.892;2022-09-09T10:02:37;99728.30;;;24.83;48.56
62928;BME280;51070;52.236;-0.892;2022-09-09T10:05:17;99731.30;;;23.99;48.94
62928;BME280;51070;52.236;-0.892;2022-09-09T10:07:43;99727.39;;;23.38;50.33
62928;BME280;51070;52.236;-0.892;2022-09-09T10:10:15;99727.20;;;23.67;50.61
62928;BME280;51070;52.236;-0.892;2022-09-09T10:13:03;99726.98;;;24.15;49.71
62928;BME280;51070;52.236;-0.892;2022-09-09T10:16:09;99729.06;;;23.93;50.11
62928;BME280;51070;52.236;-0.892;2022-09-09T10:22:02;99728.62;;;23.43;51.19
62928;BME280;51070;52.236;-0.892;2022-09-09T10:30:14;99731.70;;;22.79;53.02
62928;BME280;51070;52.236;-0.892;2022-09-09T10:38:40;99746.14;;;21.94;54.47
62928;BME280;51070;52.236;-0.892;2022-09-09T10:55:10;99750.71;;;22.18;54.68
62928;BME280;51070;52.236;-0.892;2022-09-09T11:00:19;99759.57;;;21.92;54.13
62928;BME280;51070;52.236;-0.892;2022-09-09T11:02:55;99758.51;;;21.68;54.13
62928;BME280;51070;52.236;-0.892;2022-09-09T11:05:28;99757.52;;;21.47;54.92
62928;BME280;51070;52.236;-0.892;2022-09-09T11:08:01;99756.38;;;21.30;56.02
62928;BME280;51070;52.236;-0.892;2022-09-09T11:10:48;99760.77;;;21.17;56.84
62928;BME280;51070;52.236;-0.892;2022-09-09T11:16:08;99763.50;;;20.99;57.35
62928;BME280;51070;52.236;-0.892;2022-09-09T11:18:41;99764.05;;;20.91;57.70
62928;BME280;51070;52.236;-0.892;2022-09-09T11:21:09;99765.73;;;20.80;58.29
62928;BME280;51070;52.236;-0.892;2022-09-09T11:23:49;99771.03;;;20.65;59.32
62928;BME280;51070;52.236;-0.892;2022-09-09T11:26:30;99774.88;;;20.50;59.77
62928;BME280;51070;52.236;-0.892;2022-09-09T11:29:04;99773.09;;;20.36;60.13
62928;BME280;51070;52.236;-0.892;2022-09-09T11:34:46;99774.00;;;20.43;60.26
62928;BME280;51070;52.236;-0.892;2022-09-09T11:44:38;99765.00;;;21.68;58.67
62928;BME280;51070;52.236;-0.892;2022-09-09T11:47:20;99767.28;;;21.87;57.86
62928;BME280;51070;52.236;-0.892;2022-09-09T11:49:48;99769.96;;;22.04;57.23
62928;BME280;51070;52.236;-0.892;2022-09-09T11:52:34;99769.30;;;21.97;57.07
62928;BME280;51070;52.236;-0.892;2022-09-09T11:55:20;99765.75;;;21.79;57.10
62928;BME280;51070;52.236;-0.892;2022-09-09T12:00:51;99767.66;;;21.49;56.99
62928;BME280;51070;52.236;-0.892;2022-09-09T12:08:37;99767.50;;;21.61;55.15
62928;BME280;51070;52.236;-0.892;2022-09-09T12:11:07;99763.48;;;21.48;55.12
62928;BME280;51070;52.236;-0.892;2022-09-09T12:13:32;99765.90;;;21.62;55.01
62928;BME280;51070;52.236;-0.892;2022-09-09T12:16:01;99770.98;;;21.87;55.09
62928;BME280;51070;52.236;-0.892;2022-09-09T12:18:35;99768.73;;;21.86;54.40
62928;BME280;51070;52.236;-0.892;2022-09-09T12:21:49;99778.84;;;21.82;53.88
62928;BME280;51070;52.236;-0.892;2022-09-09T12:24:19;99780.98;;;21.88;53.69
62928;BME280;51070;52.236;-0.892;2022-09-09T12:26:56;99783.46;;;21.81;54.37
62928;BME280;51070;52.236;-0.892;2022-09-09T12:29:33;99789.43;;;21.56;57.92
62928;BME280;51070;52.236;-0.892;2022-09-09T12:32:13;99795.05;;;21.23;59.67
62928;BME280;51070;52.236;-0.892;2022-09-09T12:34:46;99786.30;;;20.93;60.11
62928;BME280;51070;52.236;-0.892;2022-09-09T12:37:37;99784.46;;;20.75;61.13
62928;BME280;51070;52.236;-0.892;2022-09-09T12:40:15;99787.02;;;20.64;61.70
62928;BME280;51070;52.236;-0.892;2022-09-09T12:42:43;99787.20;;;20.64;62.18
62928;BME280;51070;52.236;-0.892;2022-09-09T12:45:18;99790.16;;;20.72;62.68
62928;BME280;51070;52.236;-0.892;2022-09-09T12:50:21;99787.27;;;21.04;62.96
62928;BME280;51070;52.236;-0.892;2022-09-09T12:52:50;99789.14;;;21.13;62.90
62928;BME280;51070;52.236;-0.892;2022-09-09T12:55:27;99788.89;;;21.17;62.91
62928;BME280;51070;52.236;-0.892;2022-09-09T12:57:56;99790.96;;;21.19;62.23
62928;BME280;51070;52.236;-0.892;2022-09-09T13:00:24;99796.33;;;21.28;61.78
62928;BME280;51070;52.236;-0.892;2022-09-09T13:02:52;99796.86;;;21.48;61.43
62928;BME280;51070;52.236;-0.892;2022-09-09T13:05:19;99796.40;;;21.65;61.03
62928;BME280;51070;52.236;-0.892;2022-09-09T13:07:45;99800.75;;;21.85;61.17
62928;BME280;51070;52.236;-0.892;2022-09-09T13:10:14;99801.63;;;22.10;60.89
62928;BME280;51070;52.236;-0.892;2022-09-09T13:12:41;99804.46;;;22.22;60.42
62928;BME280;51070;52.236;-0.892;2022-09-09T13:15:16;99803.84;;;22.42;60.06
62928;BME280;51070;52.236;-0.892;2022-09-09T13:17:50;99810.77;;;22.51;59.40
62928;BME280;51070;52.236;-0.892;2022-09-09T13:20:18;99816.23;;;22.57;58.97
62928;BME280;51070;52.236;-0.892;2022-09-09T13:22:44;99821.70;;;22.62;58.27
62928;BME280;51070;52.236;-0.892;2022-09-09T13:27:38;99842.18;;;22.54;57.94
62928;BME280;51070;52.236;-0.892;2022-09-09T13:33:00;99840.69;;;22.29;58.03
62928;BME280;51070;52.236;-0.892;2022-09-09T13:35:29;99839.42;;;22.17;58.63
62928;BME280;51070;52.236;-0.892;2022-09-09T13:37:55;99838.60;;;22.09;59.39
62928;BME280;51070;52.236;-0.892;2022-09-09T13:40:23;99831.84;;;21.99;59.54
62928;BME280;51070;52.236;-0.892;2022-09-09T13:42:55;99831.73;;;21.84;59.99
62928;BME280;51070;52.236;-0.892;2022-09-09T13:45:23;99833.73;;;21.63;59.83
62928;BME280;51070;52.236;-0.892;2022-09-09T13:47:52;99838.75;;;21.39;60.45
62928;BME280;51070;52.236;-0.892;2022-09-09T13:50:26;99843.48;;;21.18;61.53
62928;BME280;51070;52.236;-0.892;2022-09-09T13:52:55;99853.59;;;20.99;61.94
62928;BME280;51070;52.236;-0.892;2022-09-09T13:55:25;99854.37;;;20.74;60.88
62928;BME280;51070;52.236;-0.892;2022-09-09T13:57:55;99857.29;;;20.45;61.08
62928;BME280;51070;52.236;-0.892;2022-09-09T14:00:22;99857.36;;;20.16;61.62
62928;BME280;51070;52.236;-0.892;2022-09-09T14:02:49;99860.23;;;19.86;62.45
62928;BME280;51070;52.236;-0.892;2022-09-09T14:05:15;99866.21;;;19.66;64.35
62928;BME280;51070;52.236;-0.892;2022-09-09T14:07:42;99862.77;;;19.53;65.05
62928;BME280;51070;52.236;-0.892;2022-09-09T14:10:08;99867.14;;;19.43;65.38
62928;BME280;51070;52.236;-0.892;2022-09-09T14:12:34;99865.47;;;19.38;66.31
62928;BME280;51070;52.236;-0.892;2022-09-09T14:15:03;99867.23;;;19.37;67.02
62928;BME280;51070;52.236;-0.892;2022-09-09T14:17:29;99866.79;;;19.43;67.29
62928;BME280;51070;52.236;-0.892;2022-09-09T14:19:55;99866.98;;;19.53;67.58
62928;BME280;51070;52.236;-0.892;2022-09-09T14:22:21;99871.64;;;19.67;67.23
62928;BME280;51070;52.236;-0.892;2022-09-09T14:24:47;99870.85;;;19.81;67.49
62928;BME280;51070;52.236;-0.892;2022-09-09T14:27:13;99863.73;;;19.95;67.21
62928;BME280;51070;52.236;-0.892;2022-09-09T14:29:39;99858.91;;;20.08;67.01
62928;BME280;51070;52.236;-0.892;2022-09-09T14:32:05;99857.00;;;20.16;67.01
62928;BME280;51070;52.236;-0.892;2022-09-09T14:34:30;99862.54;;;20.29;67.36
62928;BME280;51070;52.236;-0.892;2022-09-09T14:36:58;99865.02;;;20.45;66.85
62928;BME280;51070;52.236;-0.892;2022-09-09T14:39:23;99863.77;;;20.55;66.54
62928;BME280;51070;52.236;-0.892;2022-09-09T14:41:49;99868.60;;;20.58;66.30
62928;BME280;51070;52.236;-0.892;2022-09-09T14:44:15;99875.69;;;20.55;66.32
62928;BME280;51070;52.236;-0.892;2022-09-09T14:46:41;99875.73;;;20.52;66.29
62928;BME280;51070;52.236;-0.892;2022-09-09T14:49:10;99878.15;;;20.46;66.77
62928;BME280;51070;52.236;-0.892;2022-09-09T14:51:38;99883.20;;;20.30;66.79
62928;BME280;51070;52.236;-0.892;2022-09-09T14:54:03;99887.02;;;20.15;66.98
62928;BME280;51070;52.236;-0.892;2022-09-09T14:56:31;99887.02;;;19.96;67.23
62928;BME280;51070;52.236;-0.892;2022-09-09T14:59:00;99889.13;;;19.78;67.66
62928;BME280;51070;52.236;-0.892;2022-09-09T15:01:29;99889.41;;;19.63;68.00